Savannah, GA (31405)

17:56 EDT le 04 août 2015 (GMT -0400)
Halcyon Bluff II | | Change Station
CLOSE
Current Station
Stations météorologiques personnelles
Location: Savannah, GA
Altitude: 20 ft
Stations météo à proximité

Alt. 20 ft 31.98 °N, 81.11 °W | Updated 4 seconds ago

Clear
Ciel dégagé
89.3 ° F
Paraît 105 ° F
N
0.0
Vent Variable Vent de OSO
Gusts 4.0 mph

Aujourd'hui
Haut(e) -- | Bas -- ° F
--% Risque de précip.
Hier
Haut(e) -- | Bas -- ° F
Precip. -- pouce
6:41 AM 8:19 PM
Lune gibbeuse décroissante, 74% visible
Pression 29.95 pouce
Visibilité 10.0 Miles terrestres
Nuages Ciel dégagé
indice de chaleur 105 ° F
Point de rosée 79 ° F
Humidité 72%
Précipitations 0.00 pouce
Profondeur de la couche neigeuse Non disponible.
UV 6 sur 12
Pollen 4.00 sur 12
Qualité de l'air Non disponible.
Flu Activity Non disponible.
METAR KSVN 042058Z AUTO VRB06KT 10SM CLR 33/27 A2994 RMK AO2 SLP141 T03280270 55008

More Conditions Fewer Conditions

Pression 29.95 pouce
Visibilité 10.0 Miles terrestres
Nuages Ciel dégagé
indice de chaleur 105 ° F
Point de rosée 79 ° F
Humidité 72%
Précipitations 0.00 pouce
Profondeur de la couche neigeuse Non disponible.
UV 6 sur 12
Pollen 4.00 sur 12
Qualité de l'air Non disponible.
Flu Activity Non disponible.
METAR KSVN 042058Z AUTO VRB06KT 10SM CLR 33/27 A2994 RMK AO2 SLP141 T03280270 55008

More Conditions Fewer Conditions

10-Day Weather Forecast

×

Almanac

Astronomie

Aug. 04, 2015 Lever Coucher
Temps réel
Crépuscule civil
Crépuscule nautique
Crépuscule astronomique
Lune
Durée de lumière visible
Longueur du jour
Tomorrow will be .
, % of the Moon is Illuminated

Extrêmes aujourd'hui

State Highs State Lows

Community

WunderPhotos

Upload Photos

1,843,992 Photos téléchargées !

WunderBlogs® & News

Nearby

Qualité de l'air

  Qualité de l'air Indice de la qualité de l'air Polluant
Not available.

Épaisseur de neige

Station Depth Altitude

Activité sismique

Ville Distance Mag. Time & Date
Minimum magnitude displayed is 2.5.

Températures des eaux côtières

Lieu Température

Stations

Stations météo à proximité

Emplacement de la station Température Refroidissement éolien Point de rosée Humidité Vent Precip. Alt. Mise à jour Type